KPHX/PHX METAR and TAF weather

Enter ICAO airport designator
Station Type Date Time Source
KPHX METAR 2021/08/02 01:51 UTC NOAA

KPHX 020151Z 19004KT 10SM FEW150 SCT200 39/15 A2987 RMK AO2 SLP092 CB DSNT NE-E T03890150


Station Type Date Time Source
KPHX Decoded METAR 2021/08/02 01:51 UTC NOAA

Phoenix, Phoenix Sky Harbor International Airport, AZ, United States (KPHX) 33-26-03N 112-03-04W 336M
Aug 01, 2021 - 09:51 PM EDT / 2021.08.02 0151 UTC
Wind: from the S (190 degrees) at 5 MPH (4 KT):0
Visibility: 10 mile(s):0
Sky conditions: partly cloudy
Weather: Cumulonimbus clouds observed
Temperature: 102.0 F (38.9 C)
Heat index: 102.2 F (39.0 C):1
Dew Point: 59.0 F (15.0 C)
Relative Humidity: 24%
Pressure (altimeter): 29.87 in. Hg (1011 hPa)
ob: KPHX 020151Z 19004KT 10SM FEW150 SCT200 39/15 A2987 RMK AO2 SLP092 CB DSNT NE-E T03890150
cycle: 2

Station Type Date Time Source
KPHX TAF 2021/08/01 21:58 UTC NOAA

TAF
AMD KPHX 012058Z 0121/0224 27008KT P6SM FEW180 SCT250
FM020500 11006KT P6SM FEW150 FEW250
FM021900 26006KT P6SM FEW250

Example: see airport list